Time;durP1;ratioP1;P1;durP2;ratioP2;P2;SDS_P1;SDS_P2;PMS_P1;PMS_P2;Temp;Humidity;BMP_temperature;BMP_pressure;BME280_temperature;BME280_humidity;BME280_pressure;Samples;Min_cycle;Max_cycle;Signal;HPM_P1;HPM_P2
2023/05/29 00:00:18;;;;;;;16.67;3.45;;;11.30;99.90;;;;;;5067772;28;20066;-72
2023/05/29 00:02:44;;;;;;;14.57;2.78;;;11.20;99.90;;;;;;5065419;28;20021;-73
2023/05/29 00:05:12;;;;;;;13.73;2.67;;;11.30;99.90;;;;;;5062675;28;20028;-73
2023/05/29 00:07:38;;;;;;;16.10;3.50;;;11.20;99.90;;;;;;5064905;28;20151;-74
2023/05/29 00:10:08;;;;;;;18.20;2.92;;;11.20;99.90;;;;;;5044477;28;20032;-73
2023/05/29 00:12:35;;;;;;;18.65;3.20;;;11.20;99.90;;;;;;5063142;28;20026;-74
2023/05/29 00:15:02;;;;;;;21.98;3.83;;;11.10;99.90;;;;;;5060548;28;20042;-73
2023/05/29 00:17:27;;;;;;;16.58;3.30;;;11.10;99.90;;;;;;5061817;28;20025;-73
2023/05/29 00:19:53;;;;;;;13.77;3.20;;;11.10;99.90;;;;;;5063346;28;20047;-74
2023/05/29 00:22:19;;;;;;;14.80;3.30;;;11.10;99.90;;;;;;5063290;28;20021;-75
2023/05/29 00:24:44;;;;;;;15.45;3.25;;;11.00;99.90;;;;;;5059494;28;20032;-75
2023/05/29 00:27:10;;;;;;;15.75;3.35;;;11.00;99.90;;;;;;5045353;28;20095;-73
2023/05/29 00:29:39;;;;;;;16.75;3.60;;;11.00;99.90;;;;;;5072350;28;20079;-72
2023/05/29 00:32:05;;;;;;;19.60;3.58;;;11.00;99.90;;;;;;5073193;28;20044;-74
2023/05/29 00:34:31;;;;;;;18.58;2.95;;;11.00;99.90;;;;;;5070562;28;20087;-75
2023/05/29 00:36:56;;;;;;;17.70;3.45;;;11.00;99.90;;;;;;5061275;28;20376;-75
2023/05/29 00:39:22;;;;;;;19.05;3.15;;;10.90;99.90;;;;;;5064250;28;20029;-74
2023/05/29 00:41:51;;;;;;;17.33;2.83;;;10.90;99.90;;;;;;5058437;28;20037;-74
2023/05/29 00:44:22;;;;;;;20.23;2.78;;;10.90;99.90;;;;;;5071874;28;20465;-74
2023/05/29 00:46:53;;;;;;;18.88;2.60;;;10.80;99.90;;;;;;5068557;28;20039;-73
2023/05/29 00:49:21;;;;;;;22.30;3.33;;;10.90;99.90;;;;;;5064074;28;20032;-73
2023/05/29 00:51:47;;;;;;;17.48;2.80;;;10.80;99.90;;;;;;5042716;28;20454;-74
2023/05/29 00:54:20;;;;;;;19.17;2.92;;;10.80;99.90;;;;;;5070526;28;20056;-74
2023/05/29 00:56:47;;;;;;;15.70;3.22;;;10.80;99.90;;;;;;5059250;28;20028;-73
2023/05/29 00:59:12;;;;;;;18.08;3.30;;;10.80;99.90;;;;;;5064423;28;20422;-74
2023/05/29 01:01:39;;;;;;;14.50;3.22;;;10.80;99.90;;;;;;5039853;28;20039;-72
2023/05/29 01:04:09;;;;;;;14.23;2.88;;;10.70;99.90;;;;;;5049616;28;20028;-78
2023/05/29 01:06:35;;;;;;;19.80;3.22;;;10.70;99.90;;;;;;5054036;28;20028;-73
2023/05/29 01:09:03;;;;;;;15.50;3.35;;;10.70;99.90;;;;;;5065849;28;20036;-75
2023/05/29 01:11:37;;;;;;;18.38;2.85;;;10.70;99.90;;;;;;5063331;28;20017;-75
2023/05/29 01:14:09;;;;;;;18.52;3.17;;;10.70;99.90;;;;;;5070975;28;20093;-73
2023/05/29 01:16:55;;;;;;;19.88;4.03;;;10.70;99.90;;;;;;5057125;28;20110;-74
2023/05/29 01:19:33;;;;;;;14.90;3.50;;;10.60;99.90;;;;;;5065851;28;20158;-74
2023/05/29 01:22:18;;;;;;;14.55;2.67;;;10.60;99.90;;;;;;5069234;28;20322;-74
2023/05/29 01:25:12;;;;;;;17.90;3.33;;;10.60;99.90;;;;;;5056318;28;20500;-73
2023/05/29 01:27:39;;;;;;;19.27;3.75;;;10.60;99.90;;;;;;5056545;28;20029;-71
2023/05/29 01:30:07;;;;;;;17.13;3.03;;;10.60;99.90;;;;;;5063604;28;20052;-72
2023/05/29 01:32:33;;;;;;;21.85;3.75;;;10.50;99.90;;;;;;5075197;28;20430;-74
2023/05/29 01:34:59;;;;;;;19.30;3.38;;;10.50;99.90;;;;;;5076619;28;20047;-74
2023/05/29 01:37:25;;;;;;;20.33;3.30;;;10.50;99.90;;;;;;5077039;28;20103;-73
2023/05/29 01:39:50;;;;;;;27.83;6.82;;;10.50;99.90;;;;;;5077007;28;20024;-72
2023/05/29 01:42:16;;;;;;;20.05;3.40;;;10.50;99.90;;;;;;5078219;28;20388;-76
2023/05/29 01:44:42;;;;;;;19.50;3.45;;;10.50;99.90;;;;;;5076070;28;20032;-76
2023/05/29 01:47:08;;;;;;;15.25;3.38;;;10.50;99.90;;;;;;5075733;28;20036;-75
2023/05/29 01:49:37;;;;;;;22.42;4.72;;;10.50;99.90;;;;;;5075283;28;20032;-73
2023/05/29 01:52:03;;;;;;;19.38;4.25;;;10.50;99.90;;;;;;5077956;28;20104;-74
2023/05/29 01:54:28;;;;;;;17.75;3.25;;;10.40;99.90;;;;;;5074836;28;20107;-75
2023/05/29 01:56:55;;;;;;;15.20;3.65;;;10.40;99.90;;;;;;5074354;28;20060;-74
2023/05/29 01:59:21;;;;;;;19.98;3.83;;;10.40;99.90;;;;;;5075625;28;20498;-73
2023/05/29 02:01:47;;;;;;;15.10;3.00;;;10.40;99.90;;;;;;5075630;28;20078;-73
2023/05/29 02:04:13;;;;;;;17.80;3.42;;;10.40;99.90;;;;;;5086337;28;20028;-73
2023/05/29 02:06:39;;;;;;;18.95;3.95;;;10.30;99.90;;;;;;5074568;28;20397;-74
2023/05/29 02:09:05;;;;;;;18.50;3.33;;;10.30;99.90;;;;;;5085276;28;20487;-73
2023/05/29 02:11:31;;;;;;;18.45;3.28;;;10.30;99.90;;;;;;5091079;28;20111;-73
2023/05/29 02:13:57;;;;;;;19.27;3.15;;;10.30;99.90;;;;;;5089293;28;20100;-72
2023/05/29 02:16:22;;;;;;;19.15;3.25;;;10.30;99.90;;;;;;5076665;28;20059;-73
2023/05/29 02:18:48;;;;;;;14.30;2.97;;;10.20;99.90;;;;;;5074214;28;20021;-74
2023/05/29 02:21:13;;;;;;;20.02;3.40;;;10.20;99.90;;;;;;5075519;28;20353;-73
2023/05/29 02:23:39;;;;;;;18.67;3.35;;;10.20;99.90;;;;;;5075309;28;20040;-72
2023/05/29 02:26:05;;;;;;;19.25;3.60;;;10.20;99.90;;;;;;5076759;28;20025;-75
2023/05/29 02:28:30;;;;;;;15.77;3.15;;;10.20;99.90;;;;;;5089510;28;20034;-72
2023/05/29 02:30:56;;;;;;;18.10;2.97;;;10.20;99.90;;;;;;5074213;28;20072;-72
2023/05/29 02:33:21;;;;;;;16.88;3.28;;;10.20;99.90;;;;;;5070003;28;20096;-72
2023/05/29 02:35:47;;;;;;;20.05;3.50;;;10.10;99.90;;;;;;5069161;28;20040;-73
2023/05/29 02:38:13;;;;;;;17.73;3.63;;;10.10;99.90;;;;;;5072022;28;20092;-75
2023/05/29 02:40:39;;;;;;;14.88;3.13;;;10.10;99.90;;;;;;5076458;28;20075;-74
2023/05/29 02:43:06;;;;;;;19.95;3.88;;;10.00;99.90;;;;;;5078148;28;20037;-73
2023/05/29 02:45:31;;;;;;;19.95;3.75;;;10.00;99.90;;;;;;5061433;28;20029;-73
2023/05/29 02:47:57;;;;;;;16.20;3.65;;;10.00;99.90;;;;;;5045073;28;20123;-72
2023/05/29 02:50:22;;;;;;;20.83;3.97;;;10.00;99.90;;;;;;5062911;28;20483;-74
2023/05/29 02:52:48;;;;;;;19.48;3.70;;;10.00;99.90;;;;;;5066681;28;20473;-72
2023/05/29 02:55:13;;;;;;;16.17;3.45;;;10.00;99.90;;;;;;5077441;28;20388;-73
2023/05/29 02:57:39;;;;;;;17.40;3.17;;;10.00;99.90;;;;;;5075813;28;20389;-73
2023/05/29 03:00:07;;;;;;;17.40;3.08;;;10.00;99.90;;;;;;5044874;28;20021;-74
2023/05/29 03:02:33;;;;;;;17.65;2.88;;;10.00;99.90;;;;;;5061485;28;20021;-73
2023/05/29 03:05:00;;;;;;;15.90;3.38;;;10.00;99.90;;;;;;5043648;28;20086;-73
2023/05/29 03:07:25;;;;;;;18.30;3.00;;;10.00;99.90;;;;;;5061647;28;20028;-72
2023/05/29 03:09:52;;;;;;;16.95;3.10;;;10.00;99.90;;;;;;5062047;28;20028;-73
2023/05/29 03:12:18;;;;;;;23.23;2.95;;;10.00;99.90;;;;;;5063719;28;20012;-73
2023/05/29 03:14:44;;;;;;;17.67;3.35;;;10.00;99.90;;;;;;5061371;28;20383;-72
2023/05/29 03:17:10;;;;;;;14.60;3.42;;;10.00;99.90;;;;;;5061526;28;20461;-73
2023/05/29 03:19:36;;;;;;;16.92;3.15;;;10.00;99.90;;;;;;5061326;28;20043;-73
2023/05/29 03:22:02;;;;;;;20.70;4.07;;;9.90;99.90;;;;;;5063417;28;20432;-74
2023/05/29 03:24:28;;;;;;;18.45;3.80;;;9.90;99.90;;;;;;5062013;28;20064;-77
2023/05/29 03:26:53;;;;;;;21.52;3.50;;;9.90;99.90;;;;;;5061548;28;20021;-76
2023/05/29 03:29:19;;;;;;;18.13;3.20;;;9.90;99.90;;;;;;5061341;28;20028;-75
2023/05/29 03:31:44;;;;;;;14.75;3.35;;;9.90;99.90;;;;;;5061624;28;20021;-74
2023/05/29 03:34:10;;;;;;;19.48;3.38;;;9.90;99.90;;;;;;5064622;28;20769;-75
2023/05/29 03:36:38;;;;;;;18.13;3.47;;;9.90;99.90;;;;;;5061544;28;20048;-71
2023/05/29 03:39:04;;;;;;;18.67;3.47;;;9.90;99.90;;;;;;5066083;28;20024;-75
2023/05/29 03:41:30;;;;;;;15.68;3.65;;;9.80;99.90;;;;;;5075420;28;20086;-75
2023/05/29 03:43:56;;;;;;;19.90;3.63;;;9.80;99.90;;;;;;5073748;28;20430;-73
2023/05/29 03:46:21;;;;;;;15.80;3.25;;;9.90;99.90;;;;;;5073928;28;20350;-74
2023/05/29 03:48:47;;;;;;;18.38;3.63;;;9.90;99.90;;;;;;5063678;28;20051;-74
2023/05/29 03:51:12;;;;;;;15.95;2.95;;;9.90;99.90;;;;;;5057746;28;20112;-73
2023/05/29 03:53:38;;;;;;;20.90;3.33;;;9.90;99.90;;;;;;5058076;28;20104;-73
2023/05/29 03:56:03;;;;;;;18.38;2.72;;;9.90;99.90;;;;;;5041963;28;20152;-74
2023/05/29 03:58:29;;;;;;;20.10;3.15;;;9.90;99.90;;;;;;5058367;28;20036;-72
2023/05/29 04:00:55;;;;;;;12.18;2.67;;;9.90;99.90;;;;;;5057701;28;20536;-72
2023/05/29 04:03:21;;;;;;;25.20;3.65;;;9.90;99.90;;;;;;5040357;28;20028;-74
2023/05/29 04:05:47;;;;;;;17.95;3.70;;;9.90;99.90;;;;;;5057707;28;20362;-73
2023/05/29 04:08:13;;;;;;;17.70;3.38;;;10.00;99.90;;;;;;5060218;28;20025;-74
2023/05/29 04:10:39;;;;;;;20.90;3.53;;;10.00;99.90;;;;;;5057800;28;20025;-72
2023/05/29 04:13:06;;;;;;;16.27;3.40;;;10.00;99.90;;;;;;5057632;28;20033;-74
2023/05/29 04:15:33;;;;;;;16.92;2.92;;;10.10;99.90;;;;;;5057620;28;20032;-74
2023/05/29 04:17:59;;;;;;;15.52;3.33;;;10.10;99.90;;;;;;5059167;28;20025;-74
2023/05/29 04:20:24;;;;;;;17.05;3.10;;;10.20;99.90;;;;;;5058706;28;20023;-74
2023/05/29 04:22:50;;;;;;;15.63;3.30;;;10.20;99.90;;;;;;5057673;28;20025;-74
2023/05/29 04:25:16;;;;;;;19.45;3.40;;;10.20;99.90;;;;;;5072513;28;20059;-76
2023/05/29 04:27:41;;;;;;;16.85;3.42;;;10.30;99.90;;;;;;5061811;28;20029;-74
2023/05/29 04:30:07;;;;;;;18.15;3.58;;;10.30;99.90;;;;;;5069131;28;20052;-76
2023/05/29 04:32:33;;;;;;;15.75;3.30;;;10.30;99.90;;;;;;5077541;28;20044;-73
2023/05/29 04:35:02;;;;;;;17.58;3.55;;;10.30;99.90;;;;;;5076386;28;20063;-72
2023/05/29 04:37:37;;;;;;;11.98;2.67;;;10.30;99.90;;;;;;5077635;28;20024;-73
2023/05/29 04:40:08;;;;;;;15.50;2.90;;;10.40;99.90;;;;;;5079534;28;20457;-73
2023/05/29 04:42:35;;;;;;;15.07;3.00;;;10.40;99.90;;;;;;5088911;28;20429;-74
2023/05/29 04:45:01;;;;;;;24.98;3.47;;;10.50;99.90;;;;;;5077342;28;20029;-73
2023/05/29 04:47:27;;;;;;;17.25;2.95;;;10.50;99.90;;;;;;5077294;28;20529;-73
2023/05/29 04:49:53;;;;;;;16.60;3.65;;;10.60;99.90;;;;;;5077796;28;20068;-75
2023/05/29 04:52:21;;;;;;;19.63;3.47;;;10.60;99.90;;;;;;5079003;28;20026;-73
2023/05/29 04:54:46;;;;;;;16.27;3.40;;;10.70;99.90;;;;;;5078714;28;20031;-73
2023/05/29 04:57:12;;;;;;;16.25;3.13;;;10.70;99.90;;;;;;5091733;28;20032;-73
2023/05/29 04:59:37;;;;;;;19.13;3.17;;;10.80;99.90;;;;;;5091216;28;20028;-73
2023/05/29 05:02:04;;;;;;;17.85;3.10;;;10.90;99.90;;;;;;5088326;28;20353;-73
2023/05/29 05:04:30;;;;;;;21.08;3.55;;;10.90;99.90;;;;;;5090598;28;20047;-75
2023/05/29 05:06:55;;;;;;;16.98;3.22;;;11.00;99.90;;;;;;5091306;28;20055;-76
2023/05/29 05:09:21;;;;;;;19.90;4.07;;;11.20;99.90;;;;;;5090855;28;20353;-73
2023/05/29 05:11:46;;;;;;;17.67;3.30;;;11.30;99.90;;;;;;5091110;28;20035;-72
2023/05/29 05:14:12;;;;;;;16.83;3.22;;;11.40;99.90;;;;;;5087943;28;20025;-73
2023/05/29 05:16:37;;;;;;;15.68;3.08;;;11.50;99.90;;;;;;5090976;28;20036;-71
2023/05/29 05:19:03;;;;;;;18.65;2.90;;;11.60;99.90;;;;;;5084138;28;20027;-72
2023/05/29 05:21:31;;;;;;;16.77;2.97;;;11.70;99.90;;;;;;5077723;28;20039;-71
2023/05/29 05:23:57;;;;;;;14.40;2.75;;;11.80;99.90;;;;;;5082552;28;20427;-72
2023/05/29 05:26:22;;;;;;;15.05;2.92;;;11.90;99.90;;;;;;5080363;28;20063;-75
2023/05/29 05:28:48;;;;;;;14.85;2.53;;;12.00;99.90;;;;;;5079180;28;20633;-73
2023/05/29 05:31:13;;;;;;;17.02;3.15;;;12.10;99.90;;;;;;5061854;28;20047;-74
2023/05/29 05:33:39;;;;;;;12.18;3.05;;;12.20;99.90;;;;;;5061038;28;20104;-72
2023/05/29 05:36:05;;;;;;;16.08;2.80;;;12.30;99.90;;;;;;5044547;28;20028;-74
2023/05/29 05:38:30;;;;;;;13.40;2.65;;;12.60;99.90;;;;;;5041421;28;20079;-73
2023/05/29 05:40:56;;;;;;;14.68;2.45;;;12.80;99.90;;;;;;5044564;28;20051;-74
2023/05/29 05:43:22;;;;;;;13.30;2.50;;;13.10;99.90;;;;;;5061823;28;20036;-74
2023/05/29 05:45:48;;;;;;;15.35;2.92;;;13.30;99.90;;;;;;5063259;28;20024;-74
2023/05/29 05:48:13;;;;;;;14.43;3.05;;;13.60;99.90;;;;;;5064716;28;20067;-75
2023/05/29 05:50:39;;;;;;;13.00;2.60;;;14.00;99.90;;;;;;5064703;28;20069;-73
2023/05/29 05:53:04;;;;;;;13.45;2.35;;;14.40;99.90;;;;;;5065016;28;20055;-77
2023/05/29 05:55:30;;;;;;;14.75;3.08;;;14.80;99.90;;;;;;5047807;28;20063;-74
2023/05/29 05:57:56;;;;;;;16.55;2.92;;;15.40;99.90;;;;;;5067717;28;20017;-75
2023/05/29 06:00:23;;;;;;;14.70;2.70;;;16.00;99.90;;;;;;5065978;28;20342;-76
2023/05/29 06:02:48;;;;;;;12.02;2.45;;;16.60;99.90;;;;;;5062812;28;20086;-74
2023/05/29 06:05:14;;;;;;;14.95;3.28;;;17.20;99.80;;;;;;5063165;28;20033;-76
2023/05/29 06:08:20;;;;;;;12.60;2.53;;;17.70;98.30;;;;;;5066703;28;20059;-73
2023/05/29 06:10:47;;;;;;;11.40;2.50;;;18.30;97.30;;;;;;5065492;28;20111;-75
2023/05/29 06:13:13;;;;;;;11.57;1.95;;;18.70;96.50;;;;;;5073355;28;20025;-73
2023/05/29 06:15:39;;;;;;;9.63;1.88;;;19.10;95.70;;;;;;5055494;28;20039;-74
2023/05/29 06:18:05;;;;;;;10.55;2.28;;;19.30;94.80;;;;;;5053868;28;20021;-74
2023/05/29 06:20:30;;;;;;;11.48;2.50;;;19.40;94.60;;;;;;5054254;28;20116;-75
2023/05/29 06:22:56;;;;;;;14.20;2.60;;;19.40;94.20;;;;;;5054524;28;20029;-74
2023/05/29 06:25:29;;;;;;;12.13;2.35;;;19.20;94.40;;;;;;5069786;28;20028;-76
2023/05/29 06:27:55;;;;;;;12.32;2.05;;;19.20;94.60;;;;;;5070821;28;20048;-76
2023/05/29 06:30:20;;;;;;;11.98;1.98;;;19.30;94.20;;;;;;5063676;28;20079;-74
2023/05/29 06:32:46;;;;;;;14.00;2.30;;;19.40;93.90;;;;;;5071284;28;20101;-74
2023/05/29 06:35:11;;;;;;;11.13;2.42;;;19.40;94.00;;;;;;5059357;28;20037;-74
2023/05/29 06:37:37;;;;;;;8.95;2.13;;;19.40;93.50;;;;;;5054884;28;20025;-73
2023/05/29 06:40:04;;;;;;;9.75;1.70;;;19.50;93.40;;;;;;5053753;28;20439;-74
2023/05/29 06:42:30;;;;;;;10.55;2.13;;;19.50;93.20;;;;;;5069014;28;20391;-74
2023/05/29 06:44:55;;;;;;;9.25;2.50;;;19.40;92.90;;;;;;5071384;28;20031;-74
2023/05/29 06:47:21;;;;;;;9.60;2.50;;;19.40;92.30;;;;;;5071338;28;20032;-74
2023/05/29 06:49:46;;;;;;;7.97;1.90;;;19.50;92.50;;;;;;5041211;28;20028;-73
2023/05/29 06:52:12;;;;;;;10.18;3.38;;;19.70;92.20;;;;;;5053498;28;20078;-74
2023/05/29 06:54:37;;;;;;;9.10;1.77;;;19.80;92.00;;;;;;5053006;28;20048;-74
2023/05/29 06:57:03;;;;;;;10.15;2.25;;;19.90;91.60;;;;;;5053417;28;20029;-73
2023/05/29 06:59:28;;;;;;;8.38;1.92;;;19.60;91.50;;;;;;5053301;28;20025;-74
2023/05/29 07:01:54;;;;;;;9.00;1.75;;;19.40;91.60;;;;;;5053694;28;20081;-74
2023/05/29 07:04:19;;;;;;;10.98;2.10;;;19.40;91.40;;;;;;5054157;28;20021;-74
2023/05/29 07:06:45;;;;;;;10.50;2.30;;;19.60;91.20;;;;;;5053959;28;20032;-74
2023/05/29 07:09:11;;;;;;;8.00;2.05;;;19.90;91.00;;;;;;5053291;28;20037;-74
2023/05/29 07:11:38;;;;;;;8.43;1.70;;;20.00;90.40;;;;;;5054199;28;20021;-76
2023/05/29 07:14:03;;;;;;;9.90;2.42;;;19.60;90.80;;;;;;5053310;28;20036;-73
2023/05/29 07:16:29;;;;;;;8.40;2.00;;;19.30;91.30;;;;;;5051127;28;20040;-75
2023/05/29 07:18:54;;;;;;;8.20;1.70;;;19.30;91.50;;;;;;5053203;28;20017;-77
2023/05/29 07:21:20;;;;;;;8.60;2.22;;;19.50;91.20;;;;;;5060209;28;20027;-73
2023/05/29 07:23:45;;;;;;;8.32;1.80;;;19.50;91.40;;;;;;5047363;28;20021;-73
2023/05/29 07:26:11;;;;;;;6.95;2.08;;;19.90;91.00;;;;;;5060577;28;20025;-74
2023/05/29 07:28:39;;;;;;;15.32;2.38;;;20.20;90.90;;;;;;5061157;28;20028;-74
2023/05/29 07:31:08;;;;;;;7.88;1.85;;;20.10;90.50;;;;;;5055681;28;20129;-72
2023/05/29 07:33:35;;;;;;;7.88;1.85;;;20.10;90.40;;;;;;5062725;28;20029;-75
2023/05/29 07:36:01;;;;;;;11.32;2.28;;;20.30;90.20;;;;;;5055936;28;20041;-74
2023/05/29 07:38:26;;;;;;;13.68;2.20;;;20.70;90.00;;;;;;5054453;28;20426;-73
2023/05/29 07:40:52;;;;;;;9.05;2.90;;;21.30;89.10;;;;;;5072041;28;20028;-71
2023/05/29 07:43:17;;;;;;;8.40;1.85;;;21.40;89.00;;;;;;5064307;28;20073;-73
2023/05/29 07:45:43;;;;;;;7.07;2.15;;;21.40;87.80;;;;;;5059485;28;20033;-73
2023/05/29 07:48:08;;;;;;;8.32;2.20;;;20.90;88.50;;;;;;5055837;28;20032;-71
2023/05/29 07:50:34;;;;;;;10.57;2.22;;;20.60;89.50;;;;;;5071827;28;20033;-72
2023/05/29 07:53:00;;;;;;;10.65;2.47;;;20.60;89.20;;;;;;5055341;28;20024;-73
2023/05/29 07:55:25;;;;;;;12.98;2.55;;;20.40;89.70;;;;;;5062126;28;20043;-71
2023/05/29 07:57:52;;;;;;;11.10;1.85;;;20.10;90.10;;;;;;5071927;28;20032;-73
2023/05/29 08:00:18;;;;;;;13.02;2.30;;;19.90;90.60;;;;;;5073351;28;20060;-73
2023/05/29 08:02:44;;;;;;;11.27;1.75;;;19.60;90.80;;;;;;5071565;28;20461;-72
2023/05/29 08:05:09;;;;;;;8.70;1.67;;;19.20;91.10;;;;;;5066531;28;20496;-73
2023/05/29 08:07:36;;;;;;;10.07;2.25;;;18.90;91.60;;;;;;5067907;28;20063;-70
2023/05/29 08:10:01;;;;;;;9.18;2.13;;;18.50;92.00;;;;;;5059411;28;20082;-72
2023/05/29 08:12:27;;;;;;;12.68;2.65;;;18.20;92.30;;;;;;5064394;28;20400;-72
2023/05/29 08:14:53;;;;;;;14.18;2.35;;;17.90;92.60;;;;;;5067637;28;20108;-72
2023/05/29 08:17:18;;;;;;;11.85;1.75;;;17.70;93.10;;;;;;5065596;28;20025;-72
2023/05/29 08:19:44;;;;;;;12.93;2.47;;;17.50;93.20;;;;;;5061863;28;20036;-70
2023/05/29 08:22:13;;;;;;;7.82;1.85;;;17.50;93.30;;;;;;5071176;28;20024;-72
2023/05/29 08:24:39;;;;;;;11.52;1.80;;;17.70;93.00;;;;;;5058986;28;20021;-72
2023/05/29 08:27:05;;;;;;;10.52;2.30;;;17.80;92.90;;;;;;5064467;28;20491;-71
2023/05/29 08:29:30;;;;;;;12.23;2.15;;;17.80;93.10;;;;;;5065377;28;20044;-71
2023/05/29 08:31:56;;;;;;;10.40;2.17;;;17.90;93.10;;;;;;5061719;28;20029;-73
2023/05/29 08:34:21;;;;;;;12.68;2.85;;;18.00;93.00;;;;;;5057655;28;20082;-72
2023/05/29 08:36:48;;;;;;;10.48;1.95;;;18.40;92.80;;;;;;5073009;28;20036;-73
2023/05/29 08:39:14;;;;;;;9.85;1.88;;;18.80;92.10;;;;;;5065494;28;20029;-72
2023/05/29 08:42:03;;;;;;;7.68;1.75;;;18.90;91.90;;;;;;5047482;28;20032;-72
2023/05/29 08:44:32;;;;;;;9.63;2.30;;;18.90;91.70;;;;;;5067862;28;20044;-73
2023/05/29 08:47:01;;;;;;;8.32;1.92;;;18.90;91.70;;;;;;5067612;28;20487;-71
2023/05/29 08:49:29;;;;;;;9.95;2.08;;;18.90;91.80;;;;;;5053106;28;20013;-72
2023/05/29 08:52:06;;;;;;;8.75;2.05;;;19.10;91.60;;;;;;5054138;28;20021;-71
2023/05/29 08:54:32;;;;;;;11.32;1.95;;;19.10;91.50;;;;;;5071191;28;20032;-72
2023/05/29 08:57:01;;;;;;;7.13;1.85;;;19.40;91.00;;;;;;5061416;28;20036;-71
2023/05/29 08:59:29;;;;;;;11.23;2.45;;;19.80;90.70;;;;;;5063556;28;20032;-72
2023/05/29 09:01:55;;;;;;;8.48;1.83;;;20.20;90.40;;;;;;5069181;28;20036;-72
2023/05/29 09:04:20;;;;;;;10.65;2.55;;;20.90;89.60;;;;;;5062314;28;20032;-72
2023/05/29 09:06:46;;;;;;;10.40;2.33;;;21.40;88.20;;;;;;5059070;28;20507;-72
2023/05/29 09:09:12;;;;;;;12.90;2.38;;;22.30;86.10;;;;;;5064842;28;20622;-72
2023/05/29 09:11:38;;;;;;;9.90;2.25;;;23.20;85.00;;;;;;5066139;28;20112;-72
2023/05/29 09:14:03;;;;;;;7.18;1.75;;;23.80;82.50;;;;;;5063990;28;20086;-72
2023/05/29 09:16:29;;;;;;;9.70;2.30;;;23.90;80.80;;;;;;5056840;28;20753;-71
2023/05/29 09:19:08;;;;;;;12.68;2.55;;;24.20;80.80;;;;;;5066741;28;20017;-71
2023/05/29 09:21:34;;;;;;;6.57;2.22;;;24.70;80.40;;;;;;5057698;28;20029;-72
2023/05/29 09:24:05;;;;;;;9.70;2.38;;;25.10;78.70;;;;;;5070423;28;20060;-74
2023/05/29 09:26:31;;;;;;;14.02;2.33;;;25.60;77.80;;;;;;5039272;28;20072;-72
2023/05/29 09:28:57;;;;;;;5.35;1.80;;;25.90;77.50;;;;;;5064498;28;20416;-73
2023/05/29 09:31:23;;;;;;;9.68;2.28;;;26.30;76.10;;;;;;5052054;28;20044;-72
2023/05/29 09:33:50;;;;;;;10.35;2.30;;;26.30;75.70;;;;;;5052436;28;20101;-73
2023/05/29 09:36:22;;;;;;;7.72;2.17;;;26.40;76.00;;;;;;5053349;28;20111;-71
2023/05/29 09:38:48;;;;;;;8.23;1.92;;;26.50;75.50;;;;;;5052028;28;20360;-73
2023/05/29 09:41:22;;;;;;;8.57;1.95;;;26.70;73.90;;;;;;5070254;28;20535;-73
2023/05/29 09:43:48;;;;;;;11.48;2.42;;;26.40;73.10;;;;;;5073630;28;20029;-73
2023/05/29 09:46:17;;;;;;;9.70;2.30;;;26.00;74.20;;;;;;5072993;28;20031;-73
2023/05/29 09:48:43;;;;;;;13.70;2.78;;;25.90;74.50;;;;;;5063710;28;20025;-72
2023/05/29 09:51:23;;;;;;;10.43;2.22;;;26.10;74.10;;;;;;5053348;28;20465;-71
2023/05/29 09:53:50;;;;;;;13.20;2.90;;;26.00;74.80;;;;;;5053474;28;20036;-72
2023/05/29 09:56:17;;;;;;;9.07;1.63;;;26.00;75.20;;;;;;5053197;28;20081;-73
2023/05/29 09:58:47;;;;;;;13.27;2.30;;;26.00;74.30;;;;;;5054331;28;20036;-72
2023/05/29 10:01:15;;;;;;;12.18;2.40;;;25.80;74.80;;;;;;5060702;28;20111;-71
2023/05/29 10:03:42;;;;;;;10.23;2.72;;;26.10;73.90;;;;;;5069098;28;20020;-72
2023/05/29 10:06:11;;;;;;;10.88;2.20;;;26.60;74.10;;;;;;5065230;28;20065;-72
2023/05/29 10:08:39;;;;;;;9.57;2.63;;;26.70;74.70;;;;;;5053032;28;20032;-71
2023/05/29 10:11:09;;;;;;;12.18;2.28;;;26.40;74.00;;;;;;5052697;28;20033;-70
2023/05/29 10:13:38;;;;;;;14.38;2.88;;;26.20;74.00;;;;;;5065220;28;20035;-70
2023/05/29 10:16:08;;;;;;;12.52;2.58;;;26.10;74.30;;;;;;5080870;28;20065;-72
2023/05/29 10:18:49;;;;;;;13.20;2.67;;;26.00;74.60;;;;;;5053262;28;20021;-72
2023/05/29 10:21:15;;;;;;;16.58;3.15;;;25.80;74.70;;;;;;5053196;28;20029;-72
2023/05/29 10:23:45;;;;;;;11.38;2.58;;;25.60;73.50;;;;;;5053199;28;20219;-73
2023/05/29 10:26:28;;;;;;;14.27;2.58;;;25.60;73.10;;;;;;5058878;28;20123;-73
2023/05/29 10:29:19;;;;;;;8.93;2.45;;;25.80;74.10;;;;;;5070304;28;20036;-71
2023/05/29 10:32:26;;;;;;;10.25;2.55;;;26.00;73.00;;;;;;5054153;28;20040;-72
2023/05/29 10:34:54;;;;;;;12.40;2.78;;;26.30;72.00;;;;;;5054310;28;20040;-73
2023/05/29 10:37:54;;;;;;;13.90;3.10;;;26.60;72.80;;;;;;5053194;28;20449;-73
2023/05/29 10:40:26;;;;;;;14.35;2.97;;;27.20;71.80;;;;;;5072646;28;20032;-71
2023/05/29 10:42:58;;;;;;;12.95;3.03;;;27.30;71.70;;;;;;5071836;28;20028;-73
2023/05/29 10:45:32;;;;;;;;;;;27.40;71.70;;;;;;5057853;28;20037;-71
2023/05/29 10:48:07;;;;;;;12.07;3.22;;;27.60;71.40;;;;;;5051206;28;20191;-72
2023/05/29 10:50:41;;;;;;;14.25;2.97;;;27.80;71.50;;;;;;5052799;28;20032;-71
2023/05/29 10:53:14;;;;;;;17.80;2.80;;;27.90;71.10;;;;;;5056217;28;20472;-72
2023/05/29 10:55:41;;;;;;;12.52;2.85;;;27.90;70.30;;;;;;5072999;28;20063;-72
2023/05/29 10:58:13;;;;;;;16.33;3.33;;;27.60;70.50;;;;;;5073662;28;20085;-71
2023/05/29 11:00:42;;;;;;;13.00;2.63;;;27.60;70.60;;;;;;5076644;28;20131;-71
2023/05/29 11:03:10;;;;;;;14.00;3.22;;;27.40;70.70;;;;;;5076351;28;20146;-72
2023/05/29 11:05:59;;;;;;;13.43;3.25;;;27.50;70.60;;;;;;5076245;28;20099;-72
2023/05/29 11:08:47;;;;;;;10.05;2.67;;;27.60;68.60;;;;;;5076401;28;20039;-73
2023/05/29 11:11:14;;;;;;;9.07;2.65;;;27.60;68.10;;;;;;5058287;28;20465;-72
2023/05/29 11:13:40;;;;;;;10.27;2.38;;;27.60;68.60;;;;;;5064654;28;20025;-71
2023/05/29 11:16:13;;;;;;;10.88;2.85;;;27.70;69.30;;;;;;5074674;28;20369;-73
2023/05/29 11:18:45;;;;;;;10.50;2.70;;;27.80;68.30;;;;;;5073031;28;20024;-73
2023/05/29 11:21:32;;;;;;;12.27;2.55;;;27.70;69.20;;;;;;5075722;28;20469;-72
2023/05/29 11:23:59;;;;;;;13.95;3.30;;;27.60;69.60;;;;;;5074367;28;20025;-73
2023/05/29 11:26:27;;;;;;;12.55;2.42;;;27.50;69.60;;;;;;5067561;28;20025;-72
2023/05/29 11:28:53;;;;;;;8.68;2.53;;;26.90;68.90;;;;;;5057637;28;20353;-73
2023/05/29 11:31:22;;;;;;;10.00;2.80;;;26.20;70.30;;;;;;5075370;28;20101;-74
2023/05/29 11:33:50;;;;;;;14.63;3.10;;;25.80;71.20;;;;;;5068134;28;20036;-73
2023/05/29 11:36:19;;;;;;;10.88;2.42;;;25.70;72.30;;;;;;5055527;28;20064;-73
2023/05/29 11:38:44;;;;;;;11.07;2.55;;;25.50;72.10;;;;;;5060339;28;20029;-73
2023/05/29 11:41:10;;;;;;;14.43;3.15;;;25.10;71.80;;;;;;5055879;28;20104;-73
2023/05/29 11:43:36;;;;;;;14.02;2.85;;;24.70;73.30;;;;;;5061568;28;20369;-71
2023/05/29 11:46:02;;;;;;;13.60;3.05;;;24.50;74.00;;;;;;5073554;28;20064;-73
2023/05/29 11:48:28;;;;;;;15.48;3.15;;;24.30;74.90;;;;;;5071671;28;21314;-73
2023/05/29 11:50:53;;;;;;;13.35;3.47;;;24.10;76.30;;;;;;5056796;28;20485;-73
2023/05/29 11:53:19;;;;;;;10.63;2.63;;;24.00;74.50;;;;;;5059917;28;20025;-73
2023/05/29 11:55:44;;;;;;;11.00;2.67;;;23.50;75.30;;;;;;5055879;28;20156;-73
2023/05/29 11:58:10;;;;;;;13.85;2.72;;;23.00;77.00;;;;;;5057325;28;20465;-71
2023/05/29 12:00:40;;;;;;;14.05;3.10;;;22.90;77.70;;;;;;5058201;28;20031;-74
2023/05/29 12:03:07;;;;;;;10.00;2.65;;;23.00;77.60;;;;;;5061519;28;20503;-71
2023/05/29 12:05:46;;;;;;;15.63;2.80;;;23.00;78.10;;;;;;5070776;28;20036;-72
2023/05/29 12:08:12;;;;;;;15.27;2.85;;;23.10;77.10;;;;;;5074606;28;20028;-71
2023/05/29 12:10:37;;;;;;;10.38;2.60;;;23.10;76.70;;;;;;5074950;28;20052;-70
2023/05/29 12:13:03;;;;;;;10.27;2.50;;;23.20;77.30;;;;;;5075440;28;20037;-73
2023/05/29 12:15:29;;;;;;;12.18;2.33;;;23.40;76.90;;;;;;5075611;28;20060;-72
2023/05/29 12:17:55;;;;;;;13.82;2.50;;;23.40;75.30;;;;;;5074331;28;20029;-72
2023/05/29 12:20:28;;;;;;;15.23;2.78;;;23.20;75.30;;;;;;5074287;28;20032;-71
2023/05/29 12:23:00;;;;;;;12.05;2.80;;;23.00;76.70;;;;;;5063365;28;20051;-71
2023/05/29 12:25:26;;;;;;;10.57;2.17;;;23.10;77.70;;;;;;5065366;28;20033;-72
2023/05/29 12:27:56;;;;;;;12.23;2.35;;;23.20;75.50;;;;;;5063241;28;20109;-73
2023/05/29 12:30:22;;;;;;;14.15;3.30;;;23.30;76.40;;;;;;5064526;28;20048;-72
2023/05/29 12:32:52;;;;;;;15.02;3.05;;;23.20;77.20;;;;;;5062477;28;20021;-72
2023/05/29 12:35:21;;;;;;;8.60;2.17;;;23.20;76.50;;;;;;5061817;28;20091;-72
2023/05/29 12:38:00;;;;;;;9.55;2.35;;;23.20;77.40;;;;;;5062985;28;20030;-73
2023/05/29 12:40:39;;;;;;;11.25;2.63;;;23.30;76.60;;;;;;5064308;28;20025;-69
2023/05/29 12:43:10;;;;;;;12.25;2.47;;;23.30;76.40;;;;;;5063593;28;20031;-73